首页
METAR-TAF:

METAR-TAF

机场 :

马斯特里赫特亚琛机场

马斯特里赫特 亚琛, 荷兰

纬度: 50-55N, 经度: 005-47E, 海拔: 114米

当前天气观测

该预报发布于26分钟前的03:55 UTC
风速11节,风向南转西南
温度 11°C
湿度 87%
气压 1022 hPa
能见度10公里或以上
少量云层高于1000英尺
散云层高于2000英尺
阴天层高于2300英尺

METAR: EHBK 220355Z AUTO 21011KT 9999 FEW010 SCT020 OVC023 11/09 Q1022 TEMPO BKN012

时间: 06:21 (04:21 UTC)

预报

该预报发布于5小时和16分钟前的23:05 UTC
预报有效从22日的 00点(UTC)到 23日的 06点(UTC)
风速8节,风向南转西南
能见度10公里或以上
多云层高于3000英尺
几率 40% :
短暂存在
从 22日的 03点(UTC)到 22日的 10点(UTC)
能見度: 6000
多云层高于1200英尺
几率 40%
从 23日的 00点(UTC)到 23日的 06点(UTC)
能見度: 4000
轻雾, 浅雾

TAF: EHBK 212305Z 2200/2306 20008KT 9999 BKN030 PROB40 TEMPO 2203/2210 6000 BKN012 PROB40 2300/2306 4000 BR MIFG

超过4000个机场的气象观测和天气预报(METAR&TAF报告)。

可查询的气象台以黄色和红色小点在地图上表示。

将鼠标移到小点上方,可查看气象台名称。

然后点击查看天气观测和预报。

如需切换地图:点击带黑十字的绿色按钮放大地图;点击带横线的绿色按钮缩小地图;或者点击绿色箭头查看邻近地区的地图。


METAR-TAF: